Time;durP1;ratioP1;P1;durP2;ratioP2;P2;SDS_P1;SDS_P2;PMS_P1;PMS_P2;Temp;Humidity;BMP_temperature;BMP_pressure;BME280_temperature;BME280_humidity;BME280_pressure;Samples;Min_cycle;Max_cycle;Signal;HPM_P1;HPM_P2
2021/07/06 00:02:05;;;;;;;2.20;2.10;;;;;;;;;;5032965;28;20528;-57
2021/07/06 00:04:31;;;;;;;2.30;2.10;;;;;;;;;;5032405;28;20410;-57
2021/07/06 00:06:57;;;;;;;2.77;2.57;;;;;;;;;;5032693;28;20456;-57
2021/07/06 00:09:23;;;;;;;2.47;2.27;;;;;;;;;;5032555;28;20549;-56
2021/07/06 00:11:49;;;;;;;2.47;2.37;;;;;;;;;;5032693;28;20496;-56
2021/07/06 00:14:15;;;;;;;2.70;2.50;;;;;;;;;;5032344;28;20395;-57
2021/07/06 00:16:41;;;;;;;5.27;2.67;;;;;;;;;;5032478;28;20915;-58
2021/07/06 00:19:07;;;;;;;2.33;2.23;;;;;;;;;;5032405;28;20425;-57
2021/07/06 00:21:33;;;;;;;2.10;2.00;;;;;;;;;;5032498;28;20419;-57
2021/07/06 00:23:59;;;;;;;2.10;1.87;;;;;;;;;;5032473;28;20456;-57
2021/07/06 00:26:25;;;;;;;4.30;2.57;;;;;;;;;;5032284;28;20418;-57
2021/07/06 00:28:51;;;;;;;2.70;2.10;;;;;;;;;;5032341;28;21004;-57
2021/07/06 00:31:17;;;;;;;3.43;2.47;;;;;;;;;;5032222;28;20487;-57
2021/07/06 00:33:43;;;;;;;3.50;2.17;;;;;;;;;;5014349;28;20417;-57
2021/07/06 00:36:10;;;;;;;2.33;2.13;;;;;;;;;;5032009;28;20472;-57
2021/07/06 00:38:36;;;;;;;4.20;1.60;;;;;;;;;;5032215;28;20410;-57
2021/07/06 00:41:02;;;;;;;2.13;2.00;;;;;;;;;;5032005;28;20410;-57
2021/07/06 00:43:28;;;;;;;4.30;1.80;;;;;;;;;;5032328;28;20407;-57
2021/07/06 00:45:56;;;;;;;2.10;1.90;;;;;;;;;;5031680;28;20472;-57
2021/07/06 00:48:22;;;;;;;2.37;2.00;;;;;;;;;;5031963;28;20456;-57
2021/07/06 00:50:48;;;;;;;1.90;1.80;;;;;;;;;;5014178;28;20776;-57
2021/07/06 00:53:14;;;;;;;2.53;2.40;;;;;;;;;;5031979;28;20452;-57
2021/07/06 00:55:40;;;;;;;2.30;2.20;;;;;;;;;;5031608;28;20419;-57
2021/07/06 00:58:06;;;;;;;2.43;1.77;;;;;;;;;;5032138;28;20446;-57
2021/07/06 01:00:32;;;;;;;2.27;2.07;;;;;;;;;;5031974;28;20479;-57
2021/07/06 01:02:59;;;;;;;2.73;2.50;;;;;;;;;;5030515;28;20461;-57
2021/07/06 01:05:25;;;;;;;2.57;1.87;;;;;;;;;;5031031;28;20505;-58
2021/07/06 01:07:52;;;;;;;2.80;1.80;;;;;;;;;;5031922;28;20450;-57
2021/07/06 01:10:18;;;;;;;1.90;1.80;;;;;;;;;;5031515;28;20405;-57
2021/07/06 01:12:45;;;;;;;2.23;1.60;;;;;;;;;;5031662;28;20398;-57
2021/07/06 01:15:12;;;;;;;1.70;1.60;;;;;;;;;;5031228;28;20474;-57
2021/07/06 01:17:39;;;;;;;1.97;1.80;;;;;;;;;;5031364;28;20767;-57
2021/07/06 01:20:09;;;;;;;1.90;1.80;;;;;;;;;;5031556;28;20433;-57
2021/07/06 01:22:36;;;;;;;2.27;1.53;;;;;;;;;;5031294;28;20403;-56
2021/07/06 01:25:03;;;;;;;1.93;1.83;;;;;;;;;;5031083;28;20451;-57
2021/07/06 01:27:29;;;;;;;2.00;1.80;;;;;;;;;;5031143;28;20453;-57
2021/07/06 01:29:55;;;;;;;9.80;1.90;;;;;;;;;;5031316;28;20415;-57
2021/07/06 01:32:22;;;;;;;1.90;1.70;;;;;;;;;;5031100;28;20911;-57
2021/07/06 01:34:48;;;;;;;2.17;1.97;;;;;;;;;;5031064;28;20489;-57
2021/07/06 01:37:17;;;;;;;2.07;1.97;;;;;;;;;;5031005;28;20465;-57
2021/07/06 01:39:44;;;;;;;3.23;1.70;;;;;;;;;;5031135;28;20472;-57
2021/07/06 01:42:10;;;;;;;2.20;2.10;;;;;;;;;;5031033;28;20414;-57
2021/07/06 01:44:36;;;;;;;1.77;1.67;;;;;;;;;;5030666;28;20399;-57
2021/07/06 01:47:02;;;;;;;2.07;1.87;;;;;;;;;;5031119;28;20846;-57
2021/07/06 01:49:33;;;;;;;1.70;1.60;;;;;;;;;;5031042;28;20462;-57
2021/07/06 01:52:00;;;;;;;3.53;2.27;;;;;;;;;;5030806;28;20453;-57
2021/07/06 01:54:26;;;;;;;1.70;1.60;;;;;;;;;;5030649;28;20402;-57
2021/07/06 01:56:52;;;;;;;1.57;1.47;;;;;;;;;;5030614;28;20425;-57
2021/07/06 01:59:18;;;;;;;2.07;1.37;;;;;;;;;;5030686;28;20502;-57
2021/07/06 02:01:44;;;;;;;2.70;1.70;;;;;;;;;;5030862;28;20406;-57
2021/07/06 02:04:13;;;;;;;3.83;2.10;;;;;;;;;;5030435;28;20413;-57
2021/07/06 02:06:39;;;;;;;1.80;1.70;;;;;;;;;;5030543;28;20424;-57
2021/07/06 02:09:05;;;;;;;4.70;1.67;;;;;;;;;;5030697;28;20482;-57
2021/07/06 02:11:31;;;;;;;2.00;1.60;;;;;;;;;;5030490;28;20766;-57
2021/07/06 02:13:59;;;;;;;6.10;1.90;;;;;;;;;;5030257;28;20822;-57
2021/07/06 02:16:25;;;;;;;2.40;2.20;;;;;;;;;;5012777;28;20455;-57
2021/07/06 02:18:51;;;;;;;2.10;1.90;;;;;;;;;;5030359;28;20410;-57
2021/07/06 02:21:17;;;;;;;2.07;1.87;;;;;;;;;;5030655;28;20473;-57
2021/07/06 02:23:47;;;;;;;1.80;1.70;;;;;;;;;;5030282;28;20934;-57
2021/07/06 02:26:13;;;;;;;2.10;2.00;;;;;;;;;;5030438;28;20434;-57
2021/07/06 02:28:39;;;;;;;2.43;2.33;;;;;;;;;;5030511;28;20441;-57
2021/07/06 02:31:06;;;;;;;3.30;2.17;;;;;;;;;;5030655;28;20404;-57
2021/07/06 02:33:34;;;;;;;1.97;1.83;;;;;;;;;;5030280;28;20406;-57
2021/07/06 02:36:01;;;;;;;2.77;1.70;;;;;;;;;;5030260;28;20427;-57
2021/07/06 02:38:28;;;;;;;1.97;1.87;;;;;;;;;;5030276;28;20801;-57
2021/07/06 02:40:54;;;;;;;2.00;1.90;;;;;;;;;;5030301;28;20434;-57
2021/07/06 02:43:20;;;;;;;1.80;1.70;;;;;;;;;;5030254;28;20438;-57
2021/07/06 02:45:46;;;;;;;1.70;1.60;;;;;;;;;;5030099;28;20453;-57
2021/07/06 02:48:14;;;;;;;1.80;1.70;;;;;;;;;;5030227;28;20454;-57
2021/07/06 02:50:41;;;;;;;2.83;1.80;;;;;;;;;;5030348;28;20405;-57
2021/07/06 02:53:11;;;;;;;2.70;2.10;;;;;;;;;;5030191;28;20466;-57
2021/07/06 02:55:37;;;;;;;3.97;1.77;;;;;;;;;;5029881;28;20418;-57
2021/07/06 02:58:04;;;;;;;4.10;1.80;;;;;;;;;;5030258;28;20804;-57
2021/07/06 03:00:31;;;;;;;1.87;1.77;;;;;;;;;;5030179;28;20457;-58
2021/07/06 03:02:58;;;;;;;1.70;1.60;;;;;;;;;;5030108;28;20410;-57
2021/07/06 03:05:25;;;;;;;5.43;2.00;;;;;;;;;;5029882;28;20453;-57
2021/07/06 03:07:52;;;;;;;3.23;2.00;;;;;;;;;;5029984;28;20460;-57
2021/07/06 03:10:19;;;;;;;1.83;1.70;;;;;;;;;;5030398;28;20394;-57
2021/07/06 03:12:45;;;;;;;2.07;1.70;;;;;;;;;;5030291;28;20399;-57
2021/07/06 03:15:12;;;;;;;2.00;1.60;;;;;;;;;;5029779;28;20496;-57
2021/07/06 03:17:38;;;;;;;2.43;1.60;;;;;;;;;;5030295;28;20401;-57
2021/07/06 03:20:06;;;;;;;2.93;1.97;;;;;;;;;;5030090;28;20404;-57
2021/07/06 03:22:33;;;;;;;1.97;1.87;;;;;;;;;;5030189;28;20399;-57
2021/07/06 03:24:59;;;;;;;1.90;1.80;;;;;;;;;;5029743;28;20426;-57
2021/07/06 03:27:25;;;;;;;3.03;1.63;;;;;;;;;;5033196;28;20545;-57
2021/07/06 03:29:52;;;;;;;1.90;1.80;;;;;;;;;;5033929;28;20536;-57
2021/07/06 03:32:18;;;;;;;7.23;1.80;;;;;;;;;;5034102;28;20470;-57
2021/07/06 03:34:45;;;;;;;4.10;1.80;;;;;;;;;;5033042;28;20406;-57
2021/07/06 03:37:11;;;;;;;1.77;1.60;;;;;;;;;;5033911;28;20400;-57
2021/07/06 03:39:37;;;;;;;3.23;2.27;;;;;;;;;;5033461;28;20397;-57
2021/07/06 03:42:04;;;;;;;4.40;1.87;;;;;;;;;;5033324;28;20779;-57
2021/07/06 03:44:30;;;;;;;3.03;1.77;;;;;;;;;;5032907;28;20408;-57
2021/07/06 03:46:56;;;;;;;2.17;1.97;;;;;;;;;;5033179;28;20410;-57
2021/07/06 03:49:22;;;;;;;1.93;1.57;;;;;;;;;;5032957;28;20458;-58
2021/07/06 03:51:49;;;;;;;2.00;1.90;;;;;;;;;;5033008;28;20439;-57
2021/07/06 03:54:15;;;;;;;1.90;1.67;;;;;;;;;;5032816;28;20395;-57
2021/07/06 03:56:41;;;;;;;7.10;1.70;;;;;;;;;;5033147;28;20419;-58
2021/07/06 03:59:10;;;;;;;1.57;1.30;;;;;;;;;;5032896;28;20502;-57
2021/07/06 04:01:36;;;;;;;1.77;1.67;;;;;;;;;;5032941;28;20942;-58
2021/07/06 04:04:03;;;;;;;2.60;1.40;;;;;;;;;;5032574;28;20498;-57
2021/07/06 04:06:30;;;;;;;1.60;1.50;;;;;;;;;;5032680;28;20481;-58
2021/07/06 04:08:56;;;;;;;2.20;1.73;;;;;;;;;;5032835;28;20467;-58
2021/07/06 04:11:22;;;;;;;3.33;2.00;;;;;;;;;;5032844;28;20935;-58
2021/07/06 04:13:48;;;;;;;5.50;1.63;;;;;;;;;;5032495;28;20436;-56
2021/07/06 04:16:14;;;;;;;1.83;1.40;;;;;;;;;;5032380;28;20846;-58
2021/07/06 04:18:40;;;;;;;2.63;1.40;;;;;;;;;;5032621;28;20503;-57
2021/07/06 04:21:07;;;;;;;2.20;1.80;;;;;;;;;;5032393;28;20497;-58
2021/07/06 04:23:34;;;;;;;2.93;1.80;;;;;;;;;;5032421;28;20409;-58
2021/07/06 04:26:00;;;;;;;1.60;1.50;;;;;;;;;;5032365;28;20433;-58
2021/07/06 04:28:25;;;;;;;5.33;2.03;;;;;;;;;;5032360;28;20449;-57
2021/07/06 04:30:53;;;;;;;1.77;1.67;;;;;;;;;;5032222;28;20398;-56
2021/07/06 04:33:19;;;;;;;1.80;1.70;;;;;;;;;;5032293;28;20416;-58
2021/07/06 04:35:45;;;;;;;2.50;1.60;;;;;;;;;;5031844;28;20412;-58
2021/07/06 04:38:10;;;;;;;2.50;1.70;;;;;;;;;;5031230;28;20487;-59
2021/07/06 04:40:36;;;;;;;1.97;1.83;;;;;;;;;;5032216;28;20887;-58
2021/07/06 04:43:05;;;;;;;2.10;1.70;;;;;;;;;;5014419;28;21021;-57
2021/07/06 04:45:31;;;;;;;4.70;1.60;;;;;;;;;;5032036;28;20424;-57
2021/07/06 04:47:57;;;;;;;2.50;1.60;;;;;;;;;;5031919;28;20574;-57
2021/07/06 04:50:23;;;;;;;4.67;2.10;;;;;;;;;;5031906;28;20403;-57
2021/07/06 04:52:50;;;;;;;2.10;1.83;;;;;;;;;;5032146;28;20400;-57
2021/07/06 04:55:16;;;;;;;2.40;1.50;;;;;;;;;;5031149;28;20503;-57
2021/07/06 04:57:43;;;;;;;3.37;1.97;;;;;;;;;;5032003;28;20396;-57
2021/07/06 05:00:10;;;;;;;2.50;1.60;;;;;;;;;;5031727;28;20402;-58
2021/07/06 05:02:36;;;;;;;1.70;1.60;;;;;;;;;;5031734;28;20420;-57
2021/07/06 05:05:04;;;;;;;3.50;1.90;;;;;;;;;;5031725;28;20787;-57
2021/07/06 05:07:30;;;;;;;2.90;1.77;;;;;;;;;;5031658;28;20398;-58
2021/07/06 05:09:56;;;;;;;1.70;1.60;;;;;;;;;;5031653;28;20515;-56
2021/07/06 05:12:22;;;;;;;3.77;1.80;;;;;;;;;;5031474;28;20405;-57
2021/07/06 05:14:48;;;;;;;3.57;1.83;;;;;;;;;;5031229;28;20402;-57
2021/07/06 05:17:14;;;;;;;3.00;1.60;;;;;;;;;;5071444;22;20495;-51
2021/07/06 05:19:40;;;;;;;4.40;2.23;;;;;;;;;;5071653;28;20408;-50
2021/07/06 05:22:06;;;;;;;2.40;2.20;;;;;;;;;;5071709;28;20398;-50
2021/07/06 05:24:32;;;;;;;6.40;2.17;;;;;;;;;;5071162;28;20399;-51
2021/07/06 05:26:58;;;;;;;2.70;2.30;;;;;;;;;;5071117;28;20768;-51
2021/07/06 05:29:24;;;;;;;2.60;2.40;;;;;;;;;;5071145;28;20863;-52
2021/07/06 05:31:51;;;;;;;2.90;2.00;;;;;;;;;;5071067;28;20404;-51
2021/07/06 05:34:17;;;;;;;2.30;2.10;;;;;;;;;;5070833;28;20407;-50
2021/07/06 05:36:44;;;;;;;2.90;2.43;;;;;;;;;;5070684;28;20758;-51
2021/07/06 05:39:11;;;;;;;1.90;1.80;;;;;;;;;;5071040;28;20485;-50
2021/07/06 05:41:37;;;;;;;4.03;2.33;;;;;;;;;;5071025;28;20404;-51
2021/07/06 05:44:03;;;;;;;2.80;1.90;;;;;;;;;;5070703;28;20408;-53
2021/07/06 05:46:29;;;;;;;3.90;2.30;;;;;;;;;;5070643;28;20902;-52
2021/07/06 05:48:57;;;;;;;3.50;3.20;;;;;;;;;;5070567;28;20448;-53
2021/07/06 05:51:23;;;;;;;2.60;2.40;;;;;;;;;;5070695;28;20401;-51
2021/07/06 05:53:49;;;;;;;2.50;2.40;;;;;;;;;;5070806;28;20460;-51
2021/07/06 05:56:20;;;;;;;4.20;2.30;;;;;;;;;;5070711;28;20422;-51
2021/07/06 05:58:47;;;;;;;3.63;2.80;;;;;;;;;;5070631;28;20401;-51
2021/07/06 06:01:13;;;;;;;2.60;2.50;;;;;;;;;;5070684;28;20546;-51
2021/07/06 06:03:40;;;;;;;3.20;2.37;;;;;;;;;;5070909;28;20404;-52
2021/07/06 06:06:08;;;;;;;3.67;2.87;;;;;;;;;;5070063;28;20427;-53
2021/07/06 06:08:35;;;;;;;2.47;2.33;;;;;;;;;;5069785;28;20459;-53
2021/07/06 06:11:01;;;;;;;4.20;3.00;;;;;;;;;;5070068;28;20397;-51
2021/07/06 06:13:27;;;;;;;4.83;2.90;;;;;;;;;;5069767;28;20490;-52
2021/07/06 06:15:53;;;;;;;3.10;2.50;;;;;;;;;;5069545;28;20488;-53
2021/07/06 06:18:19;;;;;;;3.07;2.70;;;;;;;;;;5069833;28;20416;-52
2021/07/06 06:20:45;;;;;;;2.67;2.47;;;;;;;;;;5069657;28;20461;-52
2021/07/06 06:23:11;;;;;;;3.33;3.03;;;;;;;;;;5069945;28;20407;-52
2021/07/06 06:25:38;;;;;;;3.23;2.93;;;;;;;;;;5069806;28;20888;-51
2021/07/06 06:28:04;;;;;;;3.23;3.00;;;;;;;;;;5070243;28;20827;-51
2021/07/06 06:30:30;;;;;;;2.60;2.40;;;;;;;;;;5070410;28;20375;-51
2021/07/06 06:32:56;;;;;;;2.37;2.27;;;;;;;;;;5070164;28;20951;-51
2021/07/06 06:35:23;;;;;;;6.00;3.03;;;;;;;;;;5070144;28;20403;-51
2021/07/06 06:37:49;;;;;;;3.40;3.10;;;;;;;;;;5070196;28;20918;-52
2021/07/06 06:40:15;;;;;;;2.70;2.50;;;;;;;;;;5070356;28;20397;-53
2021/07/06 06:42:42;;;;;;;5.20;2.70;;;;;;;;;;5070146;28;20457;-52
2021/07/06 06:45:09;;;;;;;3.10;2.90;;;;;;;;;;5070034;28;20452;-53
2021/07/06 06:47:37;;;;;;;3.67;2.50;;;;;;;;;;5070121;28;21213;-51
2021/07/06 06:50:04;;;;;;;4.37;2.20;;;;;;;;;;5070076;28;20469;-53
2021/07/06 06:52:31;;;;;;;2.70;2.50;;;;;;;;;;5070422;28;20441;-53
2021/07/06 06:54:57;;;;;;;3.17;2.20;;;;;;;;;;5069906;28;20394;-52
2021/07/06 06:57:23;;;;;;;2.67;2.40;;;;;;;;;;5070167;28;20492;-52
2021/07/06 06:59:49;;;;;;;2.10;2.00;;;;;;;;;;5069930;28;20421;-51
2021/07/06 07:02:16;;;;;;;3.30;2.80;;;;;;;;;;5073051;28;20493;-51
2021/07/06 07:04:42;;;;;;;3.80;2.50;;;;;;;;;;5073636;28;20910;-51
2021/07/06 07:07:08;;;;;;;4.87;2.57;;;;;;;;;;5073950;28;20505;-51
2021/07/06 07:09:34;;;;;;;2.00;1.90;;;;;;;;;;5073677;28;20459;-51
2021/07/06 07:12:00;;;;;;;2.90;2.60;;;;;;;;;;5073870;28;20400;-52
2021/07/06 07:14:26;;;;;;;4.53;2.60;;;;;;;;;;5073865;28;20380;-52
2021/07/06 07:16:52;;;;;;;3.70;2.90;;;;;;;;;;5073672;28;20447;-52
2021/07/06 07:19:18;;;;;;;3.17;2.53;;;;;;;;;;5073562;28;20903;-52
2021/07/06 07:21:44;;;;;;;2.50;2.30;;;;;;;;;;5073698;28;20746;-52
2021/07/06 07:24:10;;;;;;;3.93;2.87;;;;;;;;;;5073277;28;20457;-52
2021/07/06 07:26:37;;;;;;;2.80;2.60;;;;;;;;;;5073542;28;20455;-51
2021/07/06 07:29:05;;;;;;;3.00;2.80;;;;;;;;;;5073287;28;20951;-52
2021/07/06 07:31:32;;;;;;;3.90;2.80;;;;;;;;;;5073612;28;20427;-52
2021/07/06 07:33:58;;;;;;;3.40;3.10;;;;;;;;;;5073479;28;20404;-52
2021/07/06 07:36:24;;;;;;;4.77;3.60;;;;;;;;;;5073315;28;20434;-52
2021/07/06 07:38:50;;;;;;;4.60;4.20;;;;;;;;;;5073296;28;20384;-52
2021/07/06 07:41:16;;;;;;;8.00;3.47;;;;;;;;;;5073331;28;20767;-52
2021/07/06 07:43:42;;;;;;;8.07;4.40;;;;;;;;;;5054987;28;20424;-52
2021/07/06 07:46:08;;;;;;;5.43;3.93;;;;;;;;;;5072931;28;20964;-53
2021/07/06 07:48:34;;;;;;;3.40;3.10;;;;;;;;;;5072958;28;20456;-53
2021/07/06 07:51:00;;;;;;;2.87;2.63;;;;;;;;;;5072963;28;20460;-52
2021/07/06 07:53:26;;;;;;;3.17;2.97;;;;;;;;;;5073099;28;20404;-52
2021/07/06 07:55:53;;;;;;;3.63;2.93;;;;;;;;;;5072669;28;20484;-52
2021/07/06 07:58:19;;;;;;;3.10;2.80;;;;;;;;;;5072884;28;20428;-52
2021/07/06 08:00:45;;;;;;;3.30;3.10;;;;;;;;;;5072890;28;20407;-52
2021/07/06 08:03:11;;;;;;;2.63;2.50;;;;;;;;;;5072982;28;20379;-51
2021/07/06 08:05:37;;;;;;;3.77;2.40;;;;;;;;;;5072420;28;20436;-52
2021/07/06 08:08:03;;;;;;;3.00;2.80;;;;;;;;;;5072806;28;20462;-52
2021/07/06 08:10:30;;;;;;;2.77;2.67;;;;;;;;;;5072638;28;20404;-52
2021/07/06 08:12:56;;;;;;;2.73;2.53;;;;;;;;;;5072386;28;20495;-52
2021/07/06 08:15:21;;;;;;;2.63;2.43;;;;;;;;;;5072334;28;20506;-52
2021/07/06 08:17:48;;;;;;;2.40;2.30;;;;;;;;;;5072580;28;20436;-52
2021/07/06 08:20:16;;;;;;;2.10;2.00;;;;;;;;;;5072744;28;20941;-52
2021/07/06 08:22:43;;;;;;;2.53;2.40;;;;;;;;;;5072492;28;20400;-52
2021/07/06 08:25:09;;;;;;;2.90;2.70;;;;;;;;;;5072118;28;20742;-52
2021/07/06 08:27:35;;;;;;;2.70;2.50;;;;;;;;;;5072194;28;20449;-52
2021/07/06 08:30:01;;;;;;;2.63;2.53;;;;;;;;;;5072074;28;20491;-52
2021/07/06 08:32:27;;;;;;;4.23;2.30;;;;;;;;;;5072114;28;21003;-52
2021/07/06 08:34:53;;;;;;;2.20;2.10;;;;;;;;;;5072491;28;20405;-52
2021/07/06 08:37:19;;;;;;;2.20;2.00;;;;;;;;;;5059187;28;20934;-52
2021/07/06 08:39:45;;;;;;;1.97;1.87;;;;;;;;;;5052502;28;20878;-52
2021/07/06 08:42:11;;;;;;;2.00;1.80;;;;;;;;;;5051811;28;20884;-52
2021/07/06 08:44:38;;;;;;;4.23;2.20;;;;;;;;;;5051808;28;20409;-52
2021/07/06 08:47:05;;;;;;;2.00;1.90;;;;;;;;;;5051975;28;20441;-52
2021/07/06 08:49:32;;;;;;;2.57;1.83;;;;;;;;;;5051897;28;20461;-52
2021/07/06 08:51:59;;;;;;;2.17;2.07;;;;;;;;;;5051807;28;20412;-52
2021/07/06 08:54:25;;;;;;;2.10;1.90;;;;;;;;;;5052011;28;20405;-52
2021/07/06 08:56:51;;;;;;;1.77;1.67;;;;;;;;;;5051789;28;20974;-52
2021/07/06 08:59:17;;;;;;;2.97;2.13;;;;;;;;;;5052003;28;20405;-52
2021/07/06 09:01:43;;;;;;;2.43;2.00;;;;;;;;;;5051842;28;20461;-52
2021/07/06 09:04:09;;;;;;;1.80;1.70;;;;;;;;;;5051517;28;20419;-51
2021/07/06 09:06:54;;;;;;;4.90;2.07;;;;;;;;;;5051977;28;20421;-52
2021/07/06 09:09:28;;;;;;;2.70;1.70;;;;;;;;;;5034090;28;20455;-52
2021/07/06 09:11:56;;;;;;;1.60;1.50;;;;;;;;;;5051949;28;20920;-51
2021/07/06 09:14:25;;;;;;;2.77;2.20;;;;;;;;;;5034772;28;20399;-52
2021/07/06 09:16:54;;;;;;;2.87;1.33;;;;;;;;;;5033485;28;20483;-52
2021/07/06 09:19:20;;;;;;;2.10;1.40;;;;;;;;;;5051317;28;20497;-52
2021/07/06 09:21:46;;;;;;;2.13;1.90;;;;;;;;;;5051608;28;20821;-51
2021/07/06 09:24:25;;;;;;;2.03;1.93;;;;;;;;;;5050404;28;20462;-52
2021/07/06 09:26:52;;;;;;;1.70;1.60;;;;;;;;;;5051425;28;20424;-52
2021/07/06 09:29:24;;;;;;;4.30;1.77;;;;;;;;;;5051446;28;20440;-51
2021/07/06 09:31:50;;;;;;;2.90;1.90;;;;;;;;;;5051598;28;20454;-52
2021/07/06 09:34:16;;;;;;;1.80;1.70;;;;;;;;;;5051189;28;20432;-52
2021/07/06 09:36:42;;;;;;;1.50;1.40;;;;;;;;;;5051341;28;20451;-52
2021/07/06 09:39:19;;;;;;;1.70;1.60;;;;;;;;;;5051194;28;20798;-52
2021/07/06 09:41:53;;;;;;;1.90;1.47;;;;;;;;;;5051183;28;20850;-51
2021/07/06 09:44:23;;;;;;;2.70;1.60;;;;;;;;;;5050806;28;20502;-52
2021/07/06 09:46:51;;;;;;;3.77;1.73;;;;;;;;;;5050807;28;20434;-52
2021/07/06 09:49:19;;;;;;;2.50;1.80;;;;;;;;;;5050803;28;20946;-51
2021/07/06 09:51:47;;;;;;;2.20;1.60;;;;;;;;;;5051008;28;20473;-51
2021/07/06 09:54:33;;;;;;;1.57;1.47;;;;;;;;;;5050422;28;20811;-51
2021/07/06 09:57:06;;;;;;;1.70;1.60;;;;;;;;;;5050630;28;20803;-51
2021/07/06 09:59:32;;;;;;;1.77;1.67;;;;;;;;;;5050510;28;20412;-51
2021/07/06 10:02:02;;;;;;;1.60;1.50;;;;;;;;;;5050663;28;20913;-52
2021/07/06 10:04:29;;;;;;;1.80;1.70;;;;;;;;;;5050352;28;20408;-52
2021/07/06 10:06:58;;;;;;;1.97;1.87;;;;;;;;;;5063353;28;20504;-51
2021/07/06 10:09:26;;;;;;;1.50;1.40;;;;;;;;;;5069934;28;20868;-52
2021/07/06 10:11:54;;;;;;;2.40;1.63;;;;;;;;;;5069975;28;20412;-52
2021/07/06 10:14:20;;;;;;;1.80;1.40;;;;;;;;;;5070017;28;20796;-51
2021/07/06 10:16:47;;;;;;;1.40;1.30;;;;;;;;;;5069489;28;20443;-51
2021/07/06 10:19:13;;;;;;;2.50;1.60;;;;;;;;;;5070447;28;20402;-52
2021/07/06 10:21:39;;;;;;;1.53;1.43;;;;;;;;;;5070396;28;20411;-51
2021/07/06 10:24:06;;;;;;;1.70;1.60;;;;;;;;;;5069484;28;20413;-52
2021/07/06 10:26:34;;;;;;;1.60;1.50;;;;;;;;;;5070138;28;20433;-52
2021/07/06 10:29:01;;;;;;;1.70;1.60;;;;;;;;;;5069992;28;20962;-52
2021/07/06 10:31:27;;;;;;;1.67;1.30;;;;;;;;;;5070553;28;20714;-51
2021/07/06 10:33:54;;;;;;;1.70;1.60;;;;;;;;;;5070482;28;20407;-51
2021/07/06 10:36:35;;;;;;;4.10;1.87;;;;;;;;;;5071997;28;20477;-52
2021/07/06 10:39:01;;;;;;;1.60;1.50;;;;;;;;;;5075002;28;20408;-51
2021/07/06 10:41:35;;;;;;;1.73;1.50;;;;;;;;;;5074617;28;20429;-51
2021/07/06 10:44:03;;;;;;;1.77;1.63;;;;;;;;;;5074193;28;20415;-52
2021/07/06 10:46:38;;;;;;;1.73;1.63;;;;;;;;;;5075102;28;20419;-52
2021/07/06 10:49:06;;;;;;;3.43;1.50;;;;;;;;;;5074527;28;20512;-51
2021/07/06 10:54:04;;;;;;;2.80;1.67;;;;;;;;;;5074713;28;20401;-52
2021/07/06 10:56:42;;;;;;;1.73;1.40;;;;;;;;;;5074798;28;20494;-51
2021/07/06 10:59:23;;;;;;;1.67;1.20;;;;;;;;;;5074757;28;20432;-52
2021/07/06 11:01:49;;;;;;;1.83;1.33;;;;;;;;;;5073985;28;20394;-53
2021/07/06 11:04:34;;;;;;;2.07;1.50;;;;;;;;;;5073919;28;20407;-53
2021/07/06 11:07:00;;;;;;;1.70;1.60;;;;;;;;;;5073983;28;20473;-53
2021/07/06 11:09:26;;;;;;;2.00;1.10;;;;;;;;;;5074254;28;20459;-53
2021/07/06 11:12:13;;;;;;;1.40;1.30;;;;;;;;;;5073890;28;20396;-52
2021/07/06 11:14:49;;;;;;;2.80;1.17;;;;;;;;;;5073915;28;20206;-51
2021/07/06 11:17:31;;;;;;;2.70;1.33;;;;;;;;;;5074241;28;20958;-51
2021/07/06 11:19:58;;;;;;;1.30;1.20;;;;;;;;;;5073738;28;20409;-51
2021/07/06 11:22:38;;;;;;;1.03;1.03;;;;;;;;;;5073975;28;20436;-52
2021/07/06 11:25:20;;;;;;;1.40;1.30;;;;;;;;;;5056303;28;20499;-54
2021/07/06 11:27:56;;;;;;;0.90;0.90;;;;;;;;;;5056330;28;20432;-51
2021/07/06 11:30:24;;;;;;;0.90;0.90;;;;;;;;;;5056978;28;20443;-52
2021/07/06 11:33:09;;;;;;;0.93;0.83;;;;;;;;;;5056337;28;20454;-52
2021/07/06 11:35:38;;;;;;;1.10;1.00;;;;;;;;;;5073511;28;20480;-52
2021/07/06 11:38:12;;;;;;;1.70;0.97;;;;;;;;;;5073406;28;20424;-53
2021/07/06 11:40:39;;;;;;;1.70;1.00;;;;;;;;;;5073263;28;20388;-52
2021/07/06 11:43:06;;;;;;;1.20;1.00;;;;;;;;;;5073079;28;20396;-52
2021/07/06 11:45:32;;;;;;;1.60;1.40;;;;;;;;;;5072572;28;20423;-51
2021/07/06 11:48:05;;;;;;;4.00;1.10;;;;;;;;;;5072415;28;20436;-51
2021/07/06 11:50:32;;;;;;;1.50;1.40;;;;;;;;;;5073041;28;20433;-51
2021/07/06 11:52:59;;;;;;;3.07;1.10;;;;;;;;;;5073086;28;20795;-50
2021/07/06 11:55:26;;;;;;;2.80;1.10;;;;;;;;;;5072471;28;20781;-51
2021/07/06 11:57:53;;;;;;;1.20;0.97;;;;;;;;;;5072641;28;20443;-51
2021/07/06 12:00:22;;;;;;;3.40;0.80;;;;;;;;;;5072829;28;20400;-51
2021/07/06 12:02:48;;;;;;;1.10;1.00;;;;;;;;;;5073239;28;20408;-53
2021/07/06 12:05:14;;;;;;;1.60;1.30;;;;;;;;;;5072723;28;20400;-50
2021/07/06 12:07:40;;;;;;;2.70;1.23;;;;;;;;;;5072006;28;20431;-50
2021/07/06 12:10:09;;;;;;;1.63;1.30;;;;;;;;;;5072571;28;20452;-51
2021/07/06 12:12:35;;;;;;;1.47;1.37;;;;;;;;;;5072388;28;20406;-50
2021/07/06 12:15:01;;;;;;;0.90;0.90;;;;;;;;;;5072001;28;20404;-50
2021/07/06 12:17:31;;;;;;;3.53;1.43;;;;;;;;;;5072559;28;20527;-50
2021/07/06 12:19:58;;;;;;;2.00;1.10;;;;;;;;;;5072625;28;20439;-50
2021/07/06 12:22:25;;;;;;;1.87;1.30;;;;;;;;;;5072321;28;20605;-50
2021/07/06 12:24:52;;;;;;;1.30;1.13;;;;;;;;;;5072247;28;20490;-52
2021/07/06 12:27:18;;;;;;;1.13;1.03;;;;;;;;;;5072438;28;20434;-50
2021/07/06 12:29:46;;;;;;;4.03;1.10;;;;;;;;;;5072225;28;20821;-50
2021/07/06 12:32:13;;;;;;;1.23;1.13;;;;;;;;;;5072448;28;20411;-50
2021/07/06 12:34:39;;;;;;;2.80;1.07;;;;;;;;;;5071897;28;20397;-49
2021/07/06 12:37:08;;;;;;;1.10;1.00;;;;;;;;;;5072141;28;20963;-50
2021/07/06 12:39:38;;;;;;;2.63;1.20;;;;;;;;;;5071885;28;20488;-50
2021/07/06 12:42:08;;;;;;;3.00;1.13;;;;;;;;;;5072073;28;20455;-50
2021/07/06 12:44:44;;;;;;;3.37;1.00;;;;;;;;;;5071655;28;20893;-49
2021/07/06 12:47:16;;;;;;;3.27;1.30;;;;;;;;;;5072021;28;20460;-50
2021/07/06 12:49:47;;;;;;;1.30;1.20;;;;;;;;;;5071871;28;20475;-52
2021/07/06 12:52:12;;;;;;;4.10;1.07;;;;;;;;;;5071890;28;20506;-49
2021/07/06 12:54:40;;;;;;;1.40;1.30;;;;;;;;;;5071553;28;20483;-49
2021/07/06 12:57:06;;;;;;;1.73;1.03;;;;;;;;;;5071849;28;20416;-50
2021/07/06 12:59:34;;;;;;;1.43;0.90;;;;;;;;;;5071275;28;20396;-52
2021/07/06 13:02:17;;;;;;;1.37;1.10;;;;;;;;;;5071837;28;20408;-49
2021/07/06 13:04:49;;;;;;;1.47;1.00;;;;;;;;;;5071469;28;20403;-49
2021/07/06 13:07:19;;;;;;;4.43;1.10;;;;;;;;;;5071753;28;20832;-49
2021/07/06 13:09:59;;;;;;;1.67;0.90;;;;;;;;;;5071826;28;20490;-50
2021/07/06 13:12:26;;;;;;;1.90;1.30;;;;;;;;;;5071447;28;20396;-49
2021/07/06 13:14:54;;;;;;;1.67;1.10;;;;;;;;;;5071749;28;20397;-50
2021/07/06 13:17:27;;;;;;;2.80;1.00;;;;;;;;;;5071171;28;20874;-49
2021/07/06 13:19:59;;;;;;;3.43;1.70;;;;;;;;;;5071602;28;20412;-52
2021/07/06 13:22:25;;;;;;;0.93;0.83;;;;;;;;;;5071212;28;20408;-49
2021/07/06 13:24:51;;;;;;;6.53;1.23;;;;;;;;;;5071257;28;20491;-49
2021/07/06 13:27:19;;;;;;;2.40;1.30;;;;;;;;;;5070929;28;20428;-49
2021/07/06 13:29:45;;;;;;;1.67;1.10;;;;;;;;;;5071190;28;20444;-49
2021/07/06 13:32:11;;;;;;;1.57;1.10;;;;;;;;;;5071024;28;20436;-49
2021/07/06 13:34:38;;;;;;;1.40;1.30;;;;;;;;;;5071092;28;20424;-50
2021/07/06 13:37:04;;;;;;;3.20;1.30;;;;;;;;;;5070879;28;20420;-50
2021/07/06 13:39:30;;;;;;;1.60;1.10;;;;;;;;;;5071459;28;20443;-50
2021/07/06 13:41:56;;;;;;;1.63;0.90;;;;;;;;;;5070934;28;20431;-50
2021/07/06 13:44:23;;;;;;;4.73;1.00;;;;;;;;;;5070498;28;20412;-50
2021/07/06 13:46:50;;;;;;;1.43;1.33;;;;;;;;;;5070882;28;20420;-51
2021/07/06 13:49:16;;;;;;;1.40;1.00;;;;;;;;;;5070475;28;20943;-50
2021/07/06 13:51:43;;;;;;;3.03;1.10;;;;;;;;;;5070557;28;20409;-50
2021/07/06 13:54:10;;;;;;;2.90;0.83;;;;;;;;;;5061159;28;20405;-51
2021/07/06 13:56:36;;;;;;;1.10;0.90;;;;;;;;;;5050441;28;20436;-50
2021/07/06 13:59:02;;;;;;;2.50;0.93;;;;;;;;;;5050450;28;20413;-50
2021/07/06 14:01:28;;;;;;;1.90;1.27;;;;;;;;;;5051417;28;20409;-52
2021/07/06 14:03:55;;;;;;;3.30;1.10;;;;;;;;;;5052578;28;20404;-51
2021/07/06 14:06:21;;;;;;;3.27;1.10;;;;;;;;;;5051927;28;20426;-52
2021/07/06 14:08:47;;;;;;;2.90;1.17;;;;;;;;;;5033351;28;20540;-52
2021/07/06 14:11:13;;;;;;;1.60;1.00;;;;;;;;;;5050523;28;20516;-52
2021/07/06 14:13:40;;;;;;;2.77;1.17;;;;;;;;;;5033624;28;20394;-52
2021/07/06 14:16:06;;;;;;;1.70;0.90;;;;;;;;;;5016565;28;20495;-53
2021/07/06 14:18:35;;;;;;;2.33;0.90;;;;;;;;;;5051031;28;20405;-54
2021/07/06 14:21:01;;;;;;;6.43;1.10;;;;;;;;;;5050481;28;20461;-54
2021/07/06 14:23:28;;;;;;;4.17;1.07;;;;;;;;;;5050561;28;20824;-53
2021/07/06 14:25:56;;;;;;;1.57;0.90;;;;;;;;;;5050429;28;20482;-51
2021/07/06 14:28:22;;;;;;;1.30;0.80;;;;;;;;;;5051628;28;20893;-53
2021/07/06 14:30:49;;;;;;;4.90;1.17;;;;;;;;;;5034438;28;20455;-50
2021/07/06 14:33:15;;;;;;;3.23;1.10;;;;;;;;;;5051907;28;20928;-51
2021/07/06 14:35:41;;;;;;;4.30;1.40;;;;;;;;;;5052024;28;20917;-50
2021/07/06 14:38:07;;;;;;;2.17;1.07;;;;;;;;;;5050786;28;20410;-50
2021/07/06 14:40:33;;;;;;;1.27;1.00;;;;;;;;;;5032796;28;20413;-50
2021/07/06 14:43:00;;;;;;;2.77;1.53;;;;;;;;;;5051041;28;20405;-50
2021/07/06 14:45:26;;;;;;;2.23;1.23;;;;;;;;;;5050747;28;20458;-48
2021/07/06 14:47:53;;;;;;;2.13;1.47;;;;;;;;;;5033519;28;20429;-50